createdAt,value
2022-09-18T00:00:22.846Z,1.34
2022-09-18T00:02:49.274Z,1.37
2022-09-18T00:05:15.716Z,1.22
2022-09-18T00:07:42.074Z,1.37
2022-09-18T00:10:08.429Z,1.45
2022-09-18T00:12:34.801Z,1.50
2022-09-18T00:15:01.159Z,1.35
2022-09-18T00:17:27.641Z,1.37
2022-09-18T00:19:55.819Z,1.91
2022-09-18T00:22:22.228Z,1.68
2022-09-18T00:24:48.608Z,1.69
2022-09-18T00:27:16.549Z,1.30
2022-09-18T00:29:42.922Z,1.33
2022-09-18T00:32:09.273Z,1.61
2022-09-18T00:34:35.623Z,1.64
2022-09-18T00:37:01.994Z,1.64
2022-09-18T00:39:28.343Z,1.46
2022-09-18T00:41:54.703Z,1.53
2022-09-18T00:44:21.052Z,1.65
2022-09-18T00:46:47.485Z,1.70
2022-09-18T00:49:13.922Z,1.48
2022-09-18T00:51:40.291Z,1.49
2022-09-18T00:54:06.666Z,1.19
2022-09-18T00:56:33.053Z,1.38
2022-09-18T00:58:59.398Z,1.70
2022-09-18T01:01:25.830Z,1.90
2022-09-18T01:03:52.264Z,1.69
2022-09-18T01:06:18.622Z,1.39
2022-09-18T01:08:44.969Z,1.47
2022-09-18T01:11:11.377Z,1.58
2022-09-18T01:13:37.749Z,1.56
2022-09-18T01:16:04.130Z,1.60
2022-09-18T01:18:30.504Z,1.69
2022-09-18T01:20:56.876Z,1.51
2022-09-18T01:23:23.240Z,1.60
2022-09-18T01:25:49.645Z,1.58
2022-09-18T01:28:16.061Z,1.64
2022-09-18T01:30:42.410Z,1.62
2022-09-18T01:33:08.794Z,2.00
2022-09-18T01:35:41.680Z,2.05
2022-09-18T01:38:08.520Z,1.64
2022-09-18T01:40:34.981Z,2.19
2022-09-18T01:43:01.373Z,1.56
2022-09-18T01:45:27.777Z,1.80
2022-09-18T01:47:54.128Z,1.35
2022-09-18T01:50:20.488Z,1.49
2022-09-18T01:52:46.850Z,1.58
2022-09-18T01:55:13.219Z,1.41
2022-09-18T01:57:39.564Z,1.47
2022-09-18T02:00:05.928Z,1.58
2022-09-18T02:02:32.430Z,1.73
2022-09-18T02:04:58.924Z,1.62
2022-09-18T02:07:25.295Z,1.51
2022-09-18T02:09:51.652Z,1.44
2022-09-18T02:12:18.006Z,1.57
2022-09-18T02:14:44.355Z,1.60
2022-09-18T02:17:12.488Z,1.62
2022-09-18T02:19:38.917Z,1.82
2022-09-18T02:22:05.260Z,1.65
2022-09-18T02:24:31.620Z,1.43
2022-09-18T02:26:58.334Z,1.72
2022-09-18T02:29:24.686Z,1.78
2022-09-18T02:31:51.100Z,1.62
2022-09-18T02:34:17.508Z,1.56
2022-09-18T02:36:43.853Z,1.53
2022-09-18T02:39:10.209Z,2.12
2022-09-18T02:41:36.557Z,1.97
2022-09-18T02:44:02.920Z,1.69
2022-09-18T02:46:29.364Z,1.74
2022-09-18T02:48:55.790Z,1.66
2022-09-18T02:51:22.137Z,1.75
2022-09-18T02:53:48.489Z,1.92
2022-09-18T02:56:14.856Z,1.65
2022-09-18T02:58:41.219Z,1.58
2022-09-18T03:01:07.584Z,1.46
2022-09-18T03:03:33.952Z,1.80
2022-09-18T03:06:00.309Z,1.74
2022-09-18T03:08:26.731Z,1.71
2022-09-18T03:10:53.077Z,1.99
2022-09-18T03:13:19.542Z,1.72
2022-09-18T03:15:45.923Z,1.85
2022-09-18T03:18:12.315Z,1.96
2022-09-18T03:20:38.707Z,2.01
2022-09-18T03:23:05.070Z,1.60
2022-09-18T03:25:31.440Z,1.85
2022-09-18T03:27:57.791Z,1.53
2022-09-18T03:30:24.188Z,1.27
2022-09-18T03:32:50.522Z,1.60
2022-09-18T03:35:16.978Z,1.44
2022-09-18T03:37:43.356Z,1.61
2022-09-18T03:40:09.738Z,1.53
2022-09-18T03:42:36.156Z,1.61
2022-09-18T03:45:02.499Z,1.52
2022-09-18T03:47:31.814Z,1.40
2022-09-18T03:50:00.704Z,1.43
2022-09-18T03:52:27.051Z,1.43
2022-09-18T03:54:53.396Z,1.54
2022-09-18T03:57:19.760Z,1.64
2022-09-18T03:59:46.132Z,1.38
2022-09-18T04:02:12.553Z,1.71
2022-09-18T04:04:38.957Z,1.54
2022-09-18T04:07:05.318Z,1.67
2022-09-18T04:09:31.689Z,1.47
2022-09-18T04:11:58.058Z,1.40
2022-09-18T04:14:29.308Z,1.43
2022-09-18T04:16:56.435Z,1.55
2022-09-18T04:19:22.802Z,1.74
2022-09-18T04:21:49.164Z,1.79
2022-09-18T04:24:15.660Z,1.45
2022-09-18T04:26:42.021Z,1.56
2022-09-18T04:29:08.383Z,1.29
2022-09-18T04:31:34.783Z,1.46
2022-09-18T04:34:01.169Z,1.34
2022-09-18T04:36:27.521Z,1.35
2022-09-18T04:38:53.888Z,1.62
2022-09-18T04:41:20.252Z,1.59
2022-09-18T04:43:46.717Z,1.63
2022-09-18T04:46:13.144Z,1.74
2022-09-18T04:48:39.550Z,1.78
2022-09-18T04:51:06.024Z,1.93
2022-09-18T04:53:32.395Z,1.63
2022-09-18T04:55:58.817Z,1.60
2022-09-18T04:58:25.211Z,1.63
2022-09-18T05:00:51.663Z,1.76
2022-09-18T05:03:18.103Z,1.72
2022-09-18T05:05:44.450Z,1.59
2022-09-18T05:08:10.841Z,1.70
2022-09-18T05:10:37.218Z,1.51
2022-09-18T05:13:03.606Z,1.67
2022-09-18T05:15:29.946Z,1.74
2022-09-18T05:17:56.311Z,1.72
2022-09-18T05:20:22.733Z,1.70
2022-09-18T05:22:49.110Z,1.97
2022-09-18T05:25:15.492Z,1.84
2022-09-18T05:27:41.879Z,1.92
2022-09-18T05:30:08.238Z,2.05
2022-09-18T05:32:34.627Z,1.76
2022-09-18T05:35:00.981Z,1.74
2022-09-18T05:37:27.332Z,1.79
2022-09-18T05:39:53.732Z,1.86
2022-09-18T05:42:20.135Z,1.47
2022-09-18T05:44:46.486Z,1.30
2022-09-18T05:47:12.846Z,1.70
2022-09-18T05:49:39.199Z,1.71
2022-09-18T05:52:05.540Z,1.60
2022-09-18T05:54:31.883Z,1.62
2022-09-18T05:56:58.270Z,1.54
2022-09-18T05:59:24.614Z,1.73
2022-09-18T06:01:51.042Z,1.61
2022-09-18T06:04:17.433Z,1.75
2022-09-18T06:06:43.803Z,1.56
2022-09-18T06:09:10.168Z,1.50
2022-09-18T06:11:36.638Z,1.66
2022-09-18T06:14:03.041Z,1.68
2022-09-18T06:16:29.433Z,1.56
2022-09-18T06:18:55.814Z,1.41
2022-09-18T06:21:22.194Z,1.67
2022-09-18T06:23:48.539Z,1.52
2022-09-18T06:26:15.334Z,1.65
2022-09-18T06:28:41.729Z,1.38
2022-09-18T06:31:08.138Z,1.56
2022-09-18T06:33:34.520Z,1.57
2022-09-18T06:36:00.869Z,1.46
2022-09-18T06:38:27.276Z,1.69
2022-09-18T06:40:53.622Z,1.43
2022-09-18T06:43:19.972Z,1.84
2022-09-18T06:45:46.333Z,1.88
2022-09-18T06:48:12.708Z,1.90
2022-09-18T06:50:39.081Z,2.13
2022-09-18T06:53:10.036Z,1.86
2022-09-18T06:55:38.080Z,1.75
2022-09-18T06:58:04.445Z,1.67
2022-09-18T07:00:30.784Z,1.62
2022-09-18T07:02:57.150Z,1.60
2022-09-18T07:05:23.506Z,1.62
2022-09-18T07:07:49.886Z,1.41
2022-09-18T07:10:16.237Z,1.32
2022-09-18T07:12:42.641Z,1.67
2022-09-18T07:15:09.074Z,1.65
2022-09-18T07:17:35.440Z,1.37
2022-09-18T07:20:01.803Z,1.46
2022-09-18T07:22:28.162Z,1.70
2022-09-18T07:24:54.538Z,1.86
2022-09-18T07:27:20.867Z,1.78
2022-09-18T07:29:47.254Z,1.69
2022-09-18T07:32:13.598Z,1.85
2022-09-18T07:34:39.968Z,1.84
2022-09-18T07:37:06.322Z,2.09
2022-09-18T07:39:32.662Z,1.84
2022-09-18T07:41:59.066Z,1.87
2022-09-18T07:44:25.432Z,1.55
2022-09-18T07:46:51.817Z,1.99
2022-09-18T07:49:18.218Z,2.29
2022-09-18T07:51:44.581Z,1.71
2022-09-18T07:54:10.932Z,1.58
2022-09-18T07:56:37.293Z,1.62
2022-09-18T07:59:03.667Z,1.50
2022-09-18T08:01:30.074Z,1.32
2022-09-18T08:03:56.515Z,1.40
2022-09-18T08:06:22.885Z,1.49
2022-09-18T08:08:54.327Z,1.58
2022-09-18T08:11:21.372Z,1.82
2022-09-18T08:13:47.764Z,1.55
2022-09-18T08:16:14.172Z,1.74
2022-09-18T08:18:40.562Z,1.45
2022-09-18T08:21:10.455Z,1.44
2022-09-18T08:23:37.186Z,1.52
2022-09-18T08:26:03.597Z,1.68
2022-09-18T08:28:29.952Z,1.60
2022-09-18T08:30:56.399Z,1.56
2022-09-18T08:33:22.771Z,1.35
2022-09-18T08:35:49.203Z,1.76
2022-09-18T08:38:15.555Z,1.52
2022-09-18T08:40:42.019Z,1.67
2022-09-18T08:43:08.389Z,1.57
2022-09-18T08:45:34.755Z,1.75
2022-09-18T08:48:01.105Z,1.39
2022-09-18T08:50:27.499Z,1.54
2022-09-18T08:52:53.914Z,1.39
2022-09-18T08:55:20.323Z,1.60
2022-09-18T08:57:46.676Z,1.56
2022-09-18T09:00:13.041Z,1.67
2022-09-18T09:02:39.584Z,1.68
2022-09-18T09:05:05.997Z,1.48
2022-09-18T09:07:32.385Z,2.36
2022-09-18T09:09:58.731Z,2.01
2022-09-18T09:12:25.157Z,1.75
2022-09-18T09:14:57.534Z,1.71
2022-09-18T09:17:24.277Z,1.84
2022-09-18T09:19:50.620Z,1.53
2022-09-18T09:22:17.920Z,1.52
2022-09-18T09:24:44.290Z,1.60
2022-09-18T09:27:10.641Z,1.80
2022-09-18T09:29:37.029Z,1.80
2022-09-18T09:32:03.388Z,1.59
2022-09-18T09:34:29.752Z,1.52
2022-09-18T09:36:56.092Z,1.33
2022-09-18T09:39:22.494Z,1.63
2022-09-18T09:41:48.882Z,1.39
2022-09-18T09:44:15.350Z,1.49
2022-09-18T09:46:41.767Z,1.85
2022-09-18T09:49:08.172Z,1.38
2022-09-18T09:51:34.529Z,1.48
2022-09-18T09:54:00.991Z,1.43
2022-09-18T09:56:27.396Z,1.46
2022-09-18T09:58:53.761Z,1.65
2022-09-18T10:01:20.201Z,1.51
2022-09-18T10:03:46.605Z,1.65
2022-09-18T10:06:12.966Z,1.57
2022-09-18T10:08:39.326Z,1.75
2022-09-18T10:11:05.680Z,1.52
2022-09-18T10:13:32.030Z,1.59
2022-09-18T10:15:58.484Z,1.55
2022-09-18T10:18:24.842Z,1.54
2022-09-18T10:20:51.175Z,1.61
2022-09-18T10:23:17.631Z,1.52
2022-09-18T10:25:44.105Z,1.40
2022-09-18T10:28:10.457Z,1.45
2022-09-18T10:30:36.802Z,1.44
2022-09-18T10:33:03.206Z,1.37
2022-09-18T10:35:29.566Z,1.53
2022-09-18T10:37:55.923Z,1.58
2022-09-18T10:40:22.345Z,1.63
2022-09-18T10:42:48.726Z,1.67
2022-09-18T10:45:15.066Z,1.54
2022-09-18T10:47:41.428Z,1.59
2022-09-18T10:50:07.783Z,1.52
2022-09-18T10:52:34.127Z,1.47
2022-09-18T10:55:00.505Z,1.83
2022-09-18T10:57:26.860Z,1.57
2022-09-18T10:59:53.240Z,1.58
2022-09-18T11:02:19.622Z,1.39
2022-09-18T11:04:46.019Z,1.29
2022-09-18T11:07:12.410Z,1.67
2022-09-18T11:09:38.805Z,1.58
2022-09-18T11:12:05.211Z,1.40
2022-09-18T11:14:31.639Z,1.53
2022-09-18T11:16:57.984Z,1.35
2022-09-18T11:19:24.439Z,1.59
2022-09-18T11:21:50.834Z,1.63
2022-09-18T11:24:17.182Z,1.71
2022-09-18T11:26:43.541Z,1.47
2022-09-18T11:29:09.899Z,1.39
2022-09-18T11:31:36.344Z,1.43
2022-09-18T11:34:06.264Z,1.19
2022-09-18T11:36:33.143Z,1.36
2022-09-18T11:38:59.471Z,1.40
2022-09-18T11:41:25.830Z,1.51
2022-09-18T11:43:52.196Z,1.49
2022-09-18T11:46:18.613Z,1.33
2022-09-18T11:48:45.056Z,1.27
2022-09-18T11:51:11.462Z,1.44
2022-09-18T11:53:37.805Z,1.51
2022-09-18T11:56:04.320Z,2.11
2022-09-18T11:58:30.674Z,1.50
2022-09-18T12:00:58.423Z,1.48
2022-09-18T12:03:27.259Z,1.80
2022-09-18T12:05:53.639Z,1.47
2022-09-18T12:08:18.626Z,1.52
2022-09-18T12:10:44.963Z,1.39
2022-09-18T12:13:11.365Z,1.42
2022-09-18T12:15:37.730Z,1.57
2022-09-18T12:18:04.143Z,1.41
2022-09-18T12:20:30.494Z,1.34
2022-09-18T12:22:56.841Z,1.43
2022-09-18T12:25:23.192Z,1.26
2022-09-18T12:27:49.556Z,1.10
2022-09-18T12:30:15.899Z,1.22
2022-09-18T12:32:42.251Z,1.19
2022-09-18T12:35:08.597Z,1.31
2022-09-18T12:37:34.930Z,1.32
2022-09-18T12:40:01.990Z,1.36
2022-09-18T12:42:28.375Z,1.30
2022-09-18T12:44:54.711Z,1.49
2022-09-18T12:47:21.061Z,1.38
2022-09-18T12:49:47.489Z,1.41
2022-09-18T12:52:13.851Z,1.63
2022-09-18T12:54:40.215Z,1.24
2022-09-18T12:57:06.677Z,1.27
2022-09-18T12:59:34.063Z,1.25
2022-09-18T13:02:00.474Z,1.38
2022-09-18T13:04:26.852Z,1.37
2022-09-18T13:06:53.224Z,1.58
2022-09-18T13:09:23.911Z,2.44
2022-09-18T13:11:52.096Z,1.88
2022-09-18T13:14:18.430Z,1.17
2022-09-18T13:16:49.535Z,1.40
2022-09-18T13:19:16.629Z,1.44
2022-09-18T13:21:42.978Z,1.15
2022-09-18T13:24:09.318Z,1.38
2022-09-18T13:26:35.646Z,1.37
2022-09-18T13:29:02.020Z,1.32
2022-09-18T13:31:28.416Z,1.28
2022-09-18T13:33:57.152Z,1.23
2022-09-18T13:36:23.514Z,1.20
2022-09-18T13:38:49.888Z,1.16
2022-09-18T13:41:16.252Z,1.04
2022-09-18T13:43:42.596Z,1.15
2022-09-18T13:46:08.938Z,1.19
2022-09-18T13:48:35.322Z,1.43
2022-09-18T13:51:01.706Z,1.24
2022-09-18T13:53:28.046Z,1.11
2022-09-18T13:55:54.422Z,1.18
2022-09-18T13:58:20.785Z,1.20
2022-09-18T14:00:47.259Z,0.96
2022-09-18T14:03:13.634Z,1.13
2022-09-18T14:05:40.189Z,1.09
2022-09-18T14:08:06.554Z,1.04
2022-09-18T14:10:32.892Z,1.17
2022-09-18T14:12:59.319Z,1.30
2022-09-18T14:15:25.738Z,1.11
2022-09-18T14:17:52.102Z,1.09
2022-09-18T14:20:18.429Z,1.13
2022-09-18T14:22:44.784Z,1.38
2022-09-18T14:25:11.118Z,1.15
2022-09-18T14:27:37.496Z,1.30
2022-09-18T14:30:03.846Z,1.16
2022-09-18T14:32:30.187Z,1.22
2022-09-18T14:34:56.611Z,1.22
2022-09-18T14:37:23.010Z,1.11
2022-09-18T14:39:49.374Z,1.09
2022-09-18T14:42:15.728Z,0.85
2022-09-18T14:44:43.253Z,1.29
2022-09-18T14:47:09.590Z,1.16
2022-09-18T14:49:36.102Z,1.08
2022-09-18T14:52:04.753Z,1.33
2022-09-18T14:54:31.356Z,1.44
2022-09-18T14:56:57.820Z,1.11
2022-09-18T14:59:24.161Z,1.10
2022-09-18T15:01:50.518Z,1.00
2022-09-18T15:04:16.985Z,0.97
2022-09-18T15:06:43.378Z,1.03
2022-09-18T15:09:09.742Z,1.17
2022-09-18T15:11:52.582Z,1.30
2022-09-18T15:14:22.469Z,1.18
2022-09-18T15:16:48.809Z,1.20
2022-09-18T15:19:15.173Z,1.12
2022-09-18T15:21:41.511Z,1.05
2022-09-18T15:24:08.877Z,0.97
2022-09-18T15:26:35.262Z,0.91
2022-09-18T15:29:01.677Z,0.73
2022-09-18T15:31:28.218Z,0.72
2022-09-18T15:33:54.606Z,0.99
2022-09-18T15:36:21.061Z,0.93
2022-09-18T15:38:47.543Z,0.94
2022-09-18T15:41:13.913Z,1.01
2022-09-18T15:43:40.440Z,1.11
2022-09-18T15:46:06.825Z,0.84
2022-09-18T15:48:33.971Z,1.07
2022-09-18T15:51:00.477Z,0.90
2022-09-18T15:53:26.860Z,0.96
2022-09-18T15:55:54.139Z,0.93
2022-09-18T15:58:20.658Z,1.06
2022-09-18T16:00:47.036Z,0.99
2022-09-18T16:03:13.430Z,0.97
2022-09-18T16:05:39.778Z,0.97
2022-09-18T16:08:06.159Z,0.95
2022-09-18T16:10:32.522Z,1.00
2022-09-18T16:12:58.861Z,1.19
2022-09-18T16:15:25.288Z,0.86
2022-09-18T16:17:51.644Z,0.84
2022-09-18T16:20:18.031Z,1.01
2022-09-18T16:22:44.411Z,1.08
2022-09-18T16:25:10.751Z,1.02
2022-09-18T16:27:37.120Z,0.92
2022-09-18T16:30:03.472Z,1.08
2022-09-18T16:32:29.827Z,1.04
2022-09-18T16:34:56.229Z,0.89
2022-09-18T16:37:22.638Z,1.12
2022-09-18T16:39:49.142Z,1.00
2022-09-18T16:42:15.536Z,1.09
2022-09-18T16:44:41.920Z,1.11
2022-09-18T16:47:08.446Z,1.01
2022-09-18T16:49:34.857Z,1.08
2022-09-18T16:52:01.220Z,1.18
2022-09-18T16:54:27.585Z,0.93
2022-09-18T16:56:56.753Z,1.13
2022-09-18T16:59:23.133Z,1.04
2022-09-18T17:02:03.336Z,1.12
2022-09-18T17:04:30.490Z,1.46
2022-09-18T17:06:57.014Z,0.87
2022-09-18T17:09:23.366Z,1.18
2022-09-18T17:11:49.743Z,1.03
2022-09-18T17:14:16.080Z,1.01
2022-09-18T17:16:44.932Z,1.04
2022-09-18T17:19:11.489Z,1.04
2022-09-18T17:21:37.844Z,1.29
2022-09-18T17:24:04.269Z,1.17
2022-09-18T17:26:30.671Z,1.14
2022-09-18T17:28:57.016Z,1.14
2022-09-18T17:31:23.502Z,1.31
2022-09-18T17:33:49.871Z,1.35
2022-09-18T17:36:16.224Z,1.36
2022-09-18T17:38:42.582Z,1.30
2022-09-18T17:41:08.946Z,1.28
2022-09-18T17:43:35.295Z,1.64
2022-09-18T17:46:01.658Z,1.63
2022-09-18T17:48:28.036Z,1.79
2022-09-18T17:50:54.374Z,2.11
2022-09-18T17:53:20.744Z,2.48
2022-09-18T17:55:47.111Z,1.98
2022-09-18T17:58:13.497Z,1.75
2022-09-18T18:00:39.936Z,1.58
2022-09-18T18:03:06.300Z,1.41
2022-09-18T18:05:32.662Z,1.46
2022-09-18T18:07:59.003Z,1.29
2022-09-18T18:10:25.391Z,1.32
2022-09-18T18:12:51.752Z,1.41
2022-09-18T18:15:18.136Z,1.35
2022-09-18T18:17:44.519Z,1.41
2022-09-18T18:20:10.864Z,1.39
2022-09-18T18:22:37.222Z,1.22
2022-09-18T18:25:03.689Z,1.40
2022-09-18T18:27:30.044Z,1.45
2022-09-18T18:29:56.404Z,1.31
2022-09-18T18:32:22.827Z,1.49
2022-09-18T18:34:49.185Z,1.43
2022-09-18T18:37:15.554Z,1.55
2022-09-18T18:39:41.939Z,1.56
2022-09-18T18:42:08.299Z,1.54
2022-09-18T18:44:34.649Z,1.47
2022-09-18T18:47:01.151Z,1.18
2022-09-18T18:49:27.549Z,1.47
2022-09-18T18:51:53.987Z,1.40
2022-09-18T18:54:20.347Z,1.60
2022-09-18T18:56:46.776Z,1.50
2022-09-18T18:59:13.246Z,2.08
2022-09-18T19:01:39.836Z,2.01
2022-09-18T19:04:06.302Z,1.67
2022-09-18T19:06:32.703Z,1.79
2022-09-18T19:08:59.082Z,1.54
2022-09-18T19:11:25.447Z,1.28
2022-09-18T19:13:52.091Z,1.25
2022-09-18T19:16:18.529Z,1.38
2022-09-18T19:18:45.486Z,1.50
2022-09-18T19:21:11.832Z,1.82
2022-09-18T19:23:38.198Z,2.62
2022-09-18T19:26:04.628Z,1.46
2022-09-18T19:28:31.002Z,1.67
2022-09-18T19:30:57.375Z,3.60
2022-09-18T19:33:23.751Z,2.71
2022-09-18T19:35:50.097Z,4.25
2022-09-18T19:38:16.475Z,1.77
2022-09-18T19:40:42.819Z,1.94
2022-09-18T19:43:09.172Z,1.86
2022-09-18T19:45:35.622Z,1.42
2022-09-18T19:48:01.980Z,1.48
2022-09-18T19:50:28.434Z,1.43
2022-09-18T19:52:54.811Z,1.51
2022-09-18T19:55:21.164Z,1.28
2022-09-18T19:57:47.548Z,1.43
2022-09-18T20:00:13.902Z,1.55
2022-09-18T20:02:40.253Z,1.59
2022-09-18T20:05:06.816Z,1.38
2022-09-18T20:07:33.178Z,1.38
2022-09-18T20:09:59.549Z,1.57
2022-09-18T20:12:25.967Z,1.31
2022-09-18T20:14:52.312Z,1.68
2022-09-18T20:17:18.697Z,1.59
2022-09-18T20:19:45.043Z,1.43
2022-09-18T20:22:11.401Z,1.65
2022-09-18T20:24:37.779Z,1.66
2022-09-18T20:27:04.130Z,1.59
2022-09-18T20:29:30.470Z,1.46
2022-09-18T20:31:56.872Z,1.37
2022-09-18T20:34:23.280Z,1.45
2022-09-18T20:36:49.670Z,1.66
2022-09-18T20:39:16.040Z,1.35
2022-09-18T20:41:42.413Z,1.24
2022-09-18T20:44:08.761Z,1.33
2022-09-18T20:46:37.319Z,1.32
2022-09-18T20:49:03.999Z,1.29
2022-09-18T20:51:30.421Z,1.36
2022-09-18T20:53:56.814Z,1.50
2022-09-18T20:56:23.189Z,1.31
2022-09-18T20:58:49.627Z,1.64
2022-09-18T21:01:16.140Z,1.29
2022-09-18T21:03:42.598Z,1.57
2022-09-18T21:06:21.895Z,1.65
2022-09-18T21:08:48.991Z,1.53
2022-09-18T21:11:15.350Z,1.47
2022-09-18T21:13:41.695Z,1.56
2022-09-18T21:16:08.159Z,1.40
2022-09-18T21:18:34.602Z,1.27
2022-09-18T21:21:00.974Z,1.20
2022-09-18T21:23:27.380Z,1.22
2022-09-18T21:25:53.736Z,1.18
2022-09-18T21:28:20.158Z,1.21
2022-09-18T21:30:46.584Z,1.34
2022-09-18T21:33:12.958Z,1.23
2022-09-18T21:35:39.316Z,1.46
2022-09-18T21:38:05.723Z,1.15
2022-09-18T21:40:32.141Z,0.91
2022-09-18T21:42:58.646Z,1.17
2022-09-18T21:45:25.047Z,1.12
2022-09-18T21:47:51.493Z,1.26
2022-09-18T21:50:17.859Z,1.03
2022-09-18T21:52:44.242Z,1.01
2022-09-18T21:55:10.583Z,1.21
2022-09-18T21:57:37.022Z,0.92
2022-09-18T22:00:03.385Z,1.23
2022-09-18T22:02:30.764Z,0.94
2022-09-18T22:04:57.106Z,0.99
2022-09-18T22:07:23.486Z,0.99
2022-09-18T22:09:49.871Z,0.94
2022-09-18T22:12:16.248Z,0.96
2022-09-18T22:14:42.614Z,1.06
2022-09-18T22:17:08.955Z,1.05
2022-09-18T22:19:41.163Z,0.85
2022-09-18T22:22:07.950Z,1.06
2022-09-18T22:24:34.335Z,0.97
2022-09-18T22:27:00.678Z,1.04
2022-09-18T22:29:27.021Z,0.81
2022-09-18T22:31:53.385Z,0.82
2022-09-18T22:34:19.742Z,0.84
2022-09-18T22:36:46.150Z,0.87
2022-09-18T22:39:12.500Z,0.91
2022-09-18T22:41:38.886Z,0.96
2022-09-18T22:44:05.379Z,0.96
2022-09-18T22:46:31.773Z,1.04
2022-09-18T22:48:58.207Z,0.93
2022-09-18T22:51:24.560Z,1.03
2022-09-18T22:53:50.985Z,1.02
2022-09-18T22:56:18.369Z,1.00
2022-09-18T22:58:44.734Z,0.89
2022-09-18T23:01:11.066Z,1.02
2022-09-18T23:03:37.435Z,1.44
2022-09-18T23:06:04.808Z,1.43
2022-09-18T23:08:31.182Z,1.32
2022-09-18T23:10:57.528Z,0.99
2022-09-18T23:13:23.895Z,1.83
2022-09-18T23:15:50.343Z,1.22
2022-09-18T23:18:16.802Z,1.01
2022-09-18T23:20:43.180Z,1.56
2022-09-18T23:23:09.515Z,1.13
2022-09-18T23:25:35.883Z,0.94
2022-09-18T23:28:02.226Z,0.93
2022-09-18T23:30:28.572Z,0.92
2022-09-18T23:32:54.908Z,0.78
2022-09-18T23:35:21.259Z,0.95
2022-09-18T23:37:47.629Z,0.83
2022-09-18T23:40:14.039Z,0.86
2022-09-18T23:42:40.442Z,0.96
2022-09-18T23:45:06.778Z,0.84
2022-09-18T23:47:33.129Z,0.92
2022-09-18T23:49:59.467Z,0.90
2022-09-18T23:52:25.840Z,1.02
2022-09-18T23:54:52.172Z,0.76
2022-09-18T23:57:18.554Z,0.93
2022-09-18T23:59:44.921Z,0.91
